createdAt,value
2023-06-30T00:02:03.517Z,100902.25
2023-06-30T00:04:35.060Z,100894.56
2023-06-30T00:07:05.573Z,100904.66
2023-06-30T00:09:39.267Z,100903.31
2023-06-30T00:12:09.455Z,100905.84
2023-06-30T00:14:39.462Z,100902.94
2023-06-30T00:17:09.475Z,100902.94
2023-06-30T00:19:39.722Z,100910.03
2023-06-30T00:22:11.010Z,100908.00
2023-06-30T00:24:40.903Z,100903.81
2023-06-30T00:27:10.843Z,100902.94
2023-06-30T00:29:41.253Z,100900.94
2023-06-30T00:32:11.243Z,100908.41
2023-06-30T00:34:41.118Z,100910.03
2023-06-30T00:37:11.100Z,100903.91
2023-06-30T00:39:41.520Z,100911.19
2023-06-30T00:42:12.557Z,100913.50
2023-06-30T00:44:54.331Z,100912.94
2023-06-30T00:47:24.959Z,100913.97
2023-06-30T00:49:56.125Z,100915.28
2023-06-30T00:52:27.109Z,100910.25
2023-06-30T00:54:57.708Z,100903.47
2023-06-30T00:57:28.222Z,100912.88
2023-06-30T01:00:09.869Z,100905.41
2023-06-30T01:02:52.710Z,100905.69
2023-06-30T01:05:35.446Z,100896.59
2023-06-30T01:08:18.521Z,100898.91
2023-06-30T01:10:49.541Z,100900.31
2023-06-30T01:13:23.981Z,100902.25
2023-06-30T01:15:55.619Z,100898.91
2023-06-30T01:18:25.932Z,100896.50
2023-06-30T01:20:57.979Z,100899.84
2023-06-30T01:23:43.590Z,100903.56
2023-06-30T01:26:14.335Z,100897.31
2023-06-30T01:28:45.756Z,100894.44
2023-06-30T01:31:16.350Z,100897.78
2023-06-30T01:33:46.691Z,100891.75
2023-06-30T01:36:17.107Z,100892.03
2023-06-30T01:38:47.344Z,100897.41
2023-06-30T01:41:18.429Z,100897.06
2023-06-30T01:43:48.374Z,100896.19
2023-06-30T01:46:18.856Z,100897.06
2023-06-30T01:48:49.252Z,100895.38
2023-06-30T01:51:20.157Z,100897.06
2023-06-30T01:53:50.474Z,100906.81
2023-06-30T01:56:20.811Z,100913.25
2023-06-30T01:58:53.478Z,100915.56
2023-06-30T02:01:23.495Z,100923.03
2023-06-30T02:03:54.330Z,100925.00
2023-06-30T02:06:24.404Z,100917.56
2023-06-30T02:08:54.425Z,100914.66
2023-06-30T02:11:26.992Z,100918.22
2023-06-30T02:13:57.028Z,100918.84
2023-06-30T02:16:27.094Z,100914.47
2023-06-30T02:18:57.818Z,100908.72
2023-06-30T02:21:28.473Z,100901.44
2023-06-30T02:23:59.009Z,100896.88
2023-06-30T02:26:29.711Z,100896.13
2023-06-30T02:29:01.756Z,100895.38
2023-06-30T02:31:31.798Z,100902.31
2023-06-30T02:34:05.300Z,100899.22
2023-06-30T02:36:35.549Z,100906.31
2023-06-30T02:39:08.128Z,100906.41
2023-06-30T02:41:39.069Z,100910.19
2023-06-30T02:44:10.540Z,100903.25
2023-06-30T02:46:41.376Z,100905.72
2023-06-30T02:49:11.936Z,100897.50
2023-06-30T02:51:42.859Z,100898.78
2023-06-30T02:54:13.528Z,100891.47
2023-06-30T02:56:46.719Z,100887.16
2023-06-30T02:59:17.595Z,100882.56
2023-06-30T03:01:48.457Z,100882.56
2023-06-30T03:04:19.466Z,100874.09
2023-06-30T03:06:49.968Z,100873.13
2023-06-30T03:09:20.846Z,100878.59
2023-06-30T03:11:51.628Z,100875.31
2023-06-30T03:14:24.357Z,100877.03
2023-06-30T03:16:54.831Z,100862.53
2023-06-30T03:19:28.265Z,100851.28
2023-06-30T03:21:58.284Z,100851.56
2023-06-30T03:24:28.235Z,100842.56
2023-06-30T03:26:58.252Z,100834.59
2023-06-30T03:29:30.192Z,100827.72
2023-06-30T03:32:00.614Z,100821.06
2023-06-30T03:34:33.538Z,100816.50
2023-06-30T03:37:03.738Z,100815.91
2023-06-30T03:39:34.046Z,100808.22
2023-06-30T03:42:04.416Z,100804.91
2023-06-30T03:44:34.600Z,100793.69
2023-06-30T03:47:05.027Z,100791.59
2023-06-30T03:49:35.024Z,100784.13
2023-06-30T03:52:08.537Z,100782.28
2023-06-30T03:54:40.898Z,100775.28
2023-06-30T03:57:11.439Z,100780.94
2023-06-30T03:59:41.430Z,100775.97
2023-06-30T04:02:11.880Z,100774.75
2023-06-30T04:04:42.266Z,100768.53
2023-06-30T04:07:12.867Z,100767.72
2023-06-30T04:09:47.257Z,100765.47
2023-06-30T04:12:17.317Z,100764.22
2023-06-30T04:14:47.373Z,100763.03
2023-06-30T04:17:17.347Z,100753.25
2023-06-30T04:19:47.824Z,100745.34
2023-06-30T04:22:17.810Z,100741.59
2023-06-30T04:24:47.645Z,100747.47
2023-06-30T04:27:17.676Z,100741.22
2023-06-30T04:29:47.946Z,100743.06
2023-06-30T04:32:18.506Z,100727.41
2023-06-30T04:34:48.675Z,100726.53
2023-06-30T04:37:18.792Z,100724.88
2023-06-30T04:39:49.968Z,100726.50
2023-06-30T04:42:20.340Z,100719.84
2023-06-30T04:44:52.180Z,100716.06
2023-06-30T04:47:28.274Z,100697.94
2023-06-30T04:49:58.664Z,100689.16
2023-06-30T04:52:28.970Z,100694.56
2023-06-30T04:55:00.378Z,100688.13
2023-06-30T04:57:31.471Z,100691.03
2023-06-30T05:00:01.808Z,100681.41
2023-06-30T05:02:32.711Z,100688.69
2023-06-30T05:05:02.698Z,100684.50
2023-06-30T05:07:32.578Z,100673.47
2023-06-30T05:10:02.517Z,100662.16
2023-06-30T05:12:33.294Z,100661.75
2023-06-30T05:15:04.143Z,100655.03
2023-06-30T05:17:34.237Z,100669.22
2023-06-30T05:20:07.438Z,100667.28
2023-06-30T05:22:37.727Z,100664.31
2023-06-30T05:25:08.200Z,100661.38
2023-06-30T05:27:38.508Z,100661.56
2023-06-30T05:30:09.709Z,100661.13
2023-06-30T05:32:39.730Z,100646.06
2023-06-30T05:35:12.844Z,100645.19
2023-06-30T05:37:42.966Z,100644.31
2023-06-30T05:40:13.618Z,100656.59
2023-06-30T05:42:46.677Z,100648.16
2023-06-30T05:45:16.594Z,100645.06
2023-06-30T05:47:46.439Z,100640.88
2023-06-30T05:50:16.715Z,100651.66
2023-06-30T05:52:46.688Z,100644.84
2023-06-30T05:55:17.392Z,100635.19
2023-06-30T05:57:47.602Z,100639.06
2023-06-30T06:00:18.452Z,100638.38
2023-06-30T06:02:48.610Z,100639.13
2023-06-30T06:05:19.894Z,100644.41
2023-06-30T06:07:51.527Z,100646.91
2023-06-30T06:10:21.475Z,100645.94
2023-06-30T06:12:56.238Z,100642.75
2023-06-30T06:15:26.515Z,100641.69
2023-06-30T06:17:57.045Z,100639.56
2023-06-30T06:20:30.452Z,100636.75
2023-06-30T06:23:02.103Z,100639.81
2023-06-30T06:25:32.125Z,100645.06
2023-06-30T06:28:02.135Z,100639.69
2023-06-30T06:30:32.121Z,100641.41
2023-06-30T06:33:02.229Z,100637.31
2023-06-30T06:35:32.495Z,100637.31
2023-06-30T06:38:03.183Z,100636.78
2023-06-30T06:40:34.708Z,100617.13
2023-06-30T06:43:05.057Z,100612.38
2023-06-30T06:45:36.950Z,100618.38
2023-06-30T06:48:26.347Z,100620.28
2023-06-30T06:50:57.899Z,100622.38
2023-06-30T06:53:32.876Z,100616.50
2023-06-30T06:56:04.134Z,100618.06
2023-06-30T06:58:37.473Z,100615.25
2023-06-30T07:01:08.001Z,100611.59
2023-06-30T07:03:39.593Z,100602.13
2023-06-30T07:06:12.568Z,100596.34
2023-06-30T07:08:43.543Z,100595.00
2023-06-30T07:11:14.933Z,100598.22
2023-06-30T07:13:47.200Z,100599.91
2023-06-30T07:16:20.023Z,100600.44
2023-06-30T07:18:50.091Z,100604.56
2023-06-30T07:21:21.231Z,100609.88
2023-06-30T07:23:54.420Z,100605.66
2023-06-30T07:26:24.651Z,100592.97
2023-06-30T07:28:54.788Z,100589.50
2023-06-30T07:31:24.979Z,100593.88
2023-06-30T07:33:55.750Z,100594.63
2023-06-30T07:36:25.692Z,100597.31
2023-06-30T07:38:55.660Z,100598.44
2023-06-30T07:41:26.082Z,100611.84
2023-06-30T07:43:56.273Z,100608.31
2023-06-30T07:46:26.637Z,100610.34
2023-06-30T07:48:59.958Z,100615.59
2023-06-30T07:51:31.539Z,100613.84
2023-06-30T07:54:01.628Z,100609.09
2023-06-30T07:56:31.970Z,100597.84
2023-06-30T07:59:04.915Z,100607.56
2023-06-30T08:01:35.395Z,100608.16
2023-06-30T08:04:06.028Z,100614.06
2023-06-30T08:06:36.194Z,100613.72
2023-06-30T08:09:06.236Z,100623.03
2023-06-30T08:11:37.161Z,100613.94
2023-06-30T08:14:08.635Z,100616.41
2023-06-30T08:16:38.759Z,100618.16
2023-06-30T08:19:21.587Z,100614.34
2023-06-30T08:22:00.445Z,100614.03
2023-06-30T08:24:30.469Z,100607.03
2023-06-30T08:27:00.664Z,100613.72
2023-06-30T08:29:30.530Z,100613.06
2023-06-30T08:32:00.428Z,100613.31
2023-06-30T08:34:30.756Z,100602.19
2023-06-30T08:37:00.862Z,100609.88
2023-06-30T08:39:33.234Z,100601.25
2023-06-30T08:42:03.512Z,100596.34
2023-06-30T08:44:34.115Z,100598.38
2023-06-30T08:47:05.686Z,100606.59
2023-06-30T08:49:35.800Z,100604.97
2023-06-30T08:52:06.882Z,100611.75
2023-06-30T08:54:41.467Z,100614.53
2023-06-30T08:57:17.241Z,100626.09
2023-06-30T08:59:48.007Z,100635.28
2023-06-30T09:02:18.830Z,100640.16
2023-06-30T09:04:49.617Z,100638.94
2023-06-30T09:07:29.458Z,100645.03
2023-06-30T09:10:05.824Z,100644.84
2023-06-30T09:12:43.687Z,100650.91
2023-06-30T09:15:13.644Z,100663.22
2023-06-30T09:17:44.931Z,100662.63
2023-06-30T09:20:15.914Z,100658.47
2023-06-30T09:22:54.460Z,100662.66
2023-06-30T09:25:29.474Z,100666.00
2023-06-30T09:28:00.033Z,100667.25
2023-06-30T09:30:37.406Z,100675.63
2023-06-30T09:33:08.655Z,100683.13
2023-06-30T09:35:43.100Z,100695.03
2023-06-30T09:38:20.489Z,100701.97
2023-06-30T09:40:52.183Z,100703.84
2023-06-30T09:43:24.263Z,100705.72
2023-06-30T09:45:58.027Z,100711.56
2023-06-30T09:48:34.872Z,100718.03
2023-06-30T09:51:05.093Z,100724.09
2023-06-30T09:53:42.716Z,100727.84
2023-06-30T09:56:24.259Z,100740.38
2023-06-30T09:59:01.499Z,100754.75
2023-06-30T10:01:33.653Z,100758.91
2023-06-30T10:04:04.025Z,100760.81
2023-06-30T10:06:36.533Z,100764.56
2023-06-30T10:09:08.154Z,100771.66
2023-06-30T10:11:38.562Z,100765.41
2023-06-30T10:14:08.939Z,100769.16
2023-06-30T10:16:39.241Z,100763.72
2023-06-30T10:19:10.878Z,100756.19
2023-06-30T10:21:40.815Z,100761.63
2023-06-30T10:24:14.737Z,100769.16
2023-06-30T10:26:46.112Z,100764.53
2023-06-30T10:29:19.146Z,100765.34
2023-06-30T10:31:50.919Z,100773.91
2023-06-30T10:34:23.364Z,100784.53
2023-06-30T10:36:55.400Z,100796.63
2023-06-30T10:39:25.532Z,100792.25
2023-06-30T10:42:02.327Z,100786.19
2023-06-30T10:44:47.027Z,100795.38
2023-06-30T10:47:24.294Z,100797.44
2023-06-30T10:49:57.925Z,100790.38
2023-06-30T10:52:33.294Z,100786.63
2023-06-30T10:55:10.690Z,100791.00
2023-06-30T10:57:42.256Z,100802.44
2023-06-30T11:00:14.197Z,100822.44
2023-06-30T11:02:53.296Z,100834.72
2023-06-30T11:05:45.444Z,100835.16
2023-06-30T11:08:24.730Z,100811.19
2023-06-30T11:11:04.729Z,100799.50
2023-06-30T11:13:42.068Z,100797.84
2023-06-30T11:16:12.168Z,100803.88
2023-06-30T11:18:42.429Z,100810.75
2023-06-30T11:21:12.601Z,100824.72
2023-06-30T11:23:45.195Z,100841.19
2023-06-30T11:26:18.774Z,100843.66
2023-06-30T11:28:53.121Z,100844.31
2023-06-30T11:31:23.887Z,100842.63
2023-06-30T11:33:56.048Z,100834.91
2023-06-30T11:36:26.277Z,100834.91
2023-06-30T11:38:56.745Z,100843.66
2023-06-30T11:41:26.726Z,100852.84
2023-06-30T11:44:00.224Z,100851.16
2023-06-30T11:46:38.058Z,100847.19
2023-06-30T11:49:11.368Z,100844.84
2023-06-30T11:51:41.852Z,100854.03
2023-06-30T11:54:11.756Z,100855.69
2023-06-30T11:56:45.709Z,100849.91
2023-06-30T11:59:15.852Z,100837.63
2023-06-30T12:01:46.191Z,100831.94
2023-06-30T12:04:16.309Z,100860.72
2023-06-30T12:06:51.524Z,100888.28
2023-06-30T12:09:22.417Z,100888.91
2023-06-30T12:11:52.688Z,100889.72
2023-06-30T12:14:28.454Z,100898.25
2023-06-30T12:16:59.247Z,100900.44
2023-06-30T12:19:29.936Z,100901.19
2023-06-30T12:22:05.504Z,100894.53
2023-06-30T12:24:36.857Z,100897.44
2023-06-30T12:27:11.418Z,100893.69
2023-06-30T12:29:48.936Z,100901.19
2023-06-30T12:32:21.031Z,100919.13
2023-06-30T12:34:51.521Z,100922.44
2023-06-30T12:37:22.116Z,100929.53
2023-06-30T12:39:52.118Z,100921.59
2023-06-30T12:42:23.579Z,100920.78
2023-06-30T12:44:54.024Z,100913.19
2023-06-30T12:47:24.495Z,100922.78
2023-06-30T12:49:58.087Z,100921.53
2023-06-30T12:52:28.127Z,100919.66
2023-06-30T12:54:58.427Z,100919.09
2023-06-30T12:57:28.827Z,100922.84
2023-06-30T13:00:00.579Z,100932.16
2023-06-30T13:02:31.670Z,100926.13
2023-06-30T13:05:02.232Z,100918.63
2023-06-30T13:07:36.024Z,100919.03
2023-06-30T13:10:15.780Z,100922.13
2023-06-30T13:12:45.838Z,100916.94
2023-06-30T13:15:19.594Z,100907.97
2023-06-30T13:17:50.049Z,100906.09
2023-06-30T13:20:22.958Z,100916.09
2023-06-30T13:23:09.778Z,100922.75
2023-06-30T13:25:40.631Z,100923.56
2023-06-30T13:28:10.819Z,100929.00
2023-06-30T13:30:40.644Z,100923.97
2023-06-30T13:33:11.781Z,100935.66
2023-06-30T13:35:41.866Z,100933.13
2023-06-30T13:38:13.147Z,100920.22
2023-06-30T13:40:43.702Z,100918.56
2023-06-30T13:43:14.264Z,100918.38
2023-06-30T13:45:44.751Z,100924.59
2023-06-30T13:48:15.260Z,100927.06
2023-06-30T13:50:46.410Z,100924.78
2023-06-30T13:53:16.524Z,100923.94
2023-06-30T13:55:49.182Z,100929.38
2023-06-30T13:58:19.523Z,100936.63
2023-06-30T14:00:51.265Z,100941.22
2023-06-30T14:03:21.543Z,100944.75
2023-06-30T14:05:54.089Z,100953.91
2023-06-30T14:08:24.498Z,100962.25
2023-06-30T14:10:57.425Z,100959.72
2023-06-30T14:13:29.743Z,100971.03
2023-06-30T14:15:59.896Z,100979.31
2023-06-30T14:18:29.801Z,100975.56
2023-06-30T14:20:59.633Z,100985.53
2023-06-30T14:23:30.449Z,100989.66
2023-06-30T14:26:00.500Z,100985.94
2023-06-30T14:28:30.540Z,100986.78
2023-06-30T14:31:00.616Z,100988.00
2023-06-30T14:33:30.680Z,100984.66
2023-06-30T14:36:01.663Z,100977.56
2023-06-30T14:38:33.020Z,100980.09
2023-06-30T14:41:04.032Z,100966.31
2023-06-30T14:43:37.339Z,100965.31
2023-06-30T14:46:07.551Z,100973.81
2023-06-30T14:48:37.787Z,100960.69
2023-06-30T14:51:07.660Z,100960.28
2023-06-30T14:53:38.059Z,100957.53
2023-06-30T14:56:08.380Z,100962.97
2023-06-30T14:58:38.371Z,100959.78
2023-06-30T15:01:09.274Z,100947.72
2023-06-30T15:03:39.929Z,100956.19
2023-06-30T15:06:10.694Z,100951.19
2023-06-30T15:08:41.097Z,100954.13
2023-06-30T15:11:11.498Z,100948.72
2023-06-30T15:13:41.706Z,100947.06
2023-06-30T15:16:11.662Z,100950.97
2023-06-30T15:18:41.664Z,100950.72
2023-06-30T15:21:11.617Z,100949.91
2023-06-30T15:23:41.319Z,100947.00
2023-06-30T15:26:11.376Z,100952.22
2023-06-30T15:28:47.067Z,100957.38
2023-06-30T15:31:17.022Z,100949.91
2023-06-30T15:33:47.111Z,100941.16
2023-06-30T15:36:17.191Z,100938.19
2023-06-30T15:38:47.239Z,100932.38
2023-06-30T15:41:23.241Z,100926.50
2023-06-30T15:43:55.875Z,100916.72
2023-06-30T15:46:25.965Z,100912.81
2023-06-30T15:48:56.541Z,100914.22
2023-06-30T15:51:26.783Z,100904.44
2023-06-30T15:54:00.388Z,100908.19
2023-06-30T15:56:30.344Z,100902.78
2023-06-30T15:59:01.177Z,100903.59
2023-06-30T16:01:31.306Z,100907.94
2023-06-30T16:04:01.319Z,100897.34
2023-06-30T16:06:32.123Z,100896.09
2023-06-30T16:09:02.510Z,100891.50
2023-06-30T16:11:32.809Z,100890.03
2023-06-30T16:14:02.846Z,100893.38
2023-06-30T16:16:32.925Z,100893.94
2023-06-30T16:19:02.957Z,100886.03
2023-06-30T16:21:34.182Z,100891.06
2023-06-30T16:24:04.149Z,100891.06
2023-06-30T16:26:34.370Z,100899.81
2023-06-30T16:29:04.240Z,100886.69
2023-06-30T16:31:34.271Z,100888.53
2023-06-30T16:34:07.695Z,100885.66
2023-06-30T16:36:41.080Z,100881.28
2023-06-30T16:39:11.210Z,100880.63
2023-06-30T16:41:41.262Z,100879.59
2023-06-30T16:44:12.266Z,100878.97
2023-06-30T16:46:42.252Z,100889.56
2023-06-30T16:49:12.762Z,100886.19
2023-06-30T16:51:44.562Z,100886.19
2023-06-30T16:54:14.757Z,100883.34
2023-06-30T16:56:44.515Z,100899.25
2023-06-30T16:59:14.417Z,100895.72
2023-06-30T17:01:44.254Z,100892.63
2023-06-30T17:04:16.997Z,100890.09
2023-06-30T17:06:47.246Z,100887.22
2023-06-30T17:09:18.667Z,100883.03
2023-06-30T17:11:49.053Z,100886.31
2023-06-30T17:14:18.940Z,100881.56
2023-06-30T17:16:48.955Z,100886.13
2023-06-30T17:19:19.109Z,100885.69
2023-06-30T17:21:53.526Z,100882.06
2023-06-30T17:24:27.082Z,100874.09
2023-06-30T17:26:57.291Z,100881.16
2023-06-30T17:29:27.700Z,100874.22
2023-06-30T17:31:57.644Z,100879.09
2023-06-30T17:34:27.624Z,100872.63
2023-06-30T17:37:08.237Z,100890.69
2023-06-30T17:39:38.709Z,100883.66
2023-06-30T17:42:09.429Z,100880.25
2023-06-30T17:44:39.853Z,100879.88
2023-06-30T17:47:11.263Z,100882.72
2023-06-30T17:49:42.210Z,100870.59
2023-06-30T17:52:12.482Z,100871.72
2023-06-30T17:54:42.514Z,100863.16
2023-06-30T17:57:12.816Z,100866.69
2023-06-30T17:59:42.711Z,100863.16
2023-06-30T18:02:13.621Z,100855.28
2023-06-30T18:04:43.988Z,100851.06
2023-06-30T18:07:14.178Z,100848.16
2023-06-30T18:09:45.506Z,100850.28
2023-06-30T18:12:15.671Z,100845.31
2023-06-30T18:14:47.765Z,100841.59
2023-06-30T18:17:18.346Z,100834.69
2023-06-30T18:19:48.602Z,100839.06
2023-06-30T18:22:20.298Z,100842.69
2023-06-30T18:24:51.244Z,100830.19
2023-06-30T18:27:21.189Z,100833.53
2023-06-30T18:29:51.540Z,100843.47
2023-06-30T18:32:21.631Z,100841.00
2023-06-30T18:34:51.654Z,100838.94
2023-06-30T18:37:22.234Z,100848.47
2023-06-30T18:39:52.116Z,100857.63
2023-06-30T18:42:21.999Z,100851.78
2023-06-30T18:44:53.686Z,100851.00
2023-06-30T18:47:23.620Z,100846.16
2023-06-30T18:49:53.995Z,100836.00
2023-06-30T18:52:24.265Z,100834.44
2023-06-30T18:54:54.440Z,100824.28
2023-06-30T18:57:26.995Z,100823.91
2023-06-30T18:59:57.165Z,100830.44
2023-06-30T19:02:32.570Z,100824.66
2023-06-30T19:05:02.815Z,100817.19
2023-06-30T19:07:34.540Z,100815.16
2023-06-30T19:10:04.943Z,100818.88
2023-06-30T19:12:34.844Z,100814.41
2023-06-30T19:15:05.632Z,100823.34
2023-06-30T19:17:38.699Z,100818.09
2023-06-30T19:20:08.934Z,100819.53
2023-06-30T19:22:39.160Z,100823.34
2023-06-30T19:25:14.024Z,100816.28
2023-06-30T19:27:43.963Z,100822.19
2023-06-30T19:30:14.294Z,100822.59
2023-06-30T19:32:47.391Z,100831.19
2023-06-30T19:35:17.322Z,100831.84
2023-06-30T19:37:47.335Z,100832.88
2023-06-30T19:40:17.462Z,100831.97
2023-06-30T19:42:47.516Z,100833.50
2023-06-30T19:45:18.112Z,100839.03
2023-06-30T19:47:48.165Z,100834.53
2023-06-30T19:50:18.584Z,100825.41
2023-06-30T19:52:51.226Z,100831.78
2023-06-30T19:55:24.352Z,100833.25
2023-06-30T19:57:56.403Z,100836.97
2023-06-30T20:00:26.480Z,100845.47
2023-06-30T20:02:59.472Z,100843.16
2023-06-30T20:05:29.729Z,100846.88
2023-06-30T20:08:00.168Z,100840.97
2023-06-30T20:10:32.651Z,100844.44
2023-06-30T20:13:04.033Z,100842.78
2023-06-30T20:15:37.501Z,100848.81
2023-06-30T20:18:07.629Z,100848.50
2023-06-30T20:20:37.508Z,100856.00
2023-06-30T20:23:07.247Z,100858.97
2023-06-30T20:25:37.763Z,100868.31
2023-06-30T20:28:08.204Z,100868.09
2023-06-30T20:30:38.215Z,100871.00
2023-06-30T20:33:08.107Z,100866.16
2023-06-30T20:35:38.175Z,100863.09
2023-06-30T20:38:08.343Z,100862.59
2023-06-30T20:40:38.254Z,100876.09
2023-06-30T20:43:08.580Z,100870.94
2023-06-30T20:45:39.245Z,100869.25
2023-06-30T20:48:11.364Z,100865.94
2023-06-30T20:50:43.693Z,100861.16
2023-06-30T20:53:14.009Z,100860.53
2023-06-30T20:55:44.412Z,100859.63
2023-06-30T20:58:14.402Z,100859.63
2023-06-30T21:00:45.314Z,100847.41
2023-06-30T21:03:15.567Z,100845.53
2023-06-30T21:05:45.706Z,100838.00
2023-06-30T21:08:15.632Z,100841.75
2023-06-30T21:10:45.682Z,100847.78
2023-06-30T21:13:15.759Z,100845.47
2023-06-30T21:15:45.508Z,100848.53
2023-06-30T21:18:15.359Z,100847.25
2023-06-30T21:20:45.638Z,100842.41
2023-06-30T21:23:15.832Z,100852.91
2023-06-30T21:25:46.120Z,100841.84
2023-06-30T21:28:17.738Z,100843.16
2023-06-30T21:30:47.816Z,100829.38
2023-06-30T21:33:18.939Z,100830.78
2023-06-30T21:35:49.720Z,100824.63
2023-06-30T21:38:20.121Z,100817.06
2023-06-30T21:40:50.329Z,100816.53
2023-06-30T21:43:20.191Z,100816.91
2023-06-30T21:45:50.252Z,100828.72
2023-06-30T21:48:20.287Z,100828.84
2023-06-30T21:50:50.517Z,100839.53
2023-06-30T21:53:21.224Z,100842.41
2023-06-30T21:55:53.743Z,100835.97
2023-06-30T21:58:27.742Z,100840.56
2023-06-30T22:00:58.138Z,100841.66
2023-06-30T22:03:29.310Z,100847.91
2023-06-30T22:05:59.416Z,100846.97
2023-06-30T22:08:30.733Z,100849.94
2023-06-30T22:11:00.963Z,100845.31
2023-06-30T22:13:30.952Z,100843.69
2023-06-30T22:16:01.263Z,100847.63
2023-06-30T22:18:33.621Z,100844.94
2023-06-30T22:21:05.218Z,100848.53
2023-06-30T22:23:35.161Z,100856.66
2023-06-30T22:26:05.717Z,100850.78
2023-06-30T22:28:35.615Z,100855.03
2023-06-30T22:31:05.339Z,100856.34
2023-06-30T22:33:35.348Z,100859.47
2023-06-30T22:36:06.104Z,100861.47
2023-06-30T22:38:36.487Z,100856.72
2023-06-30T22:41:06.386Z,100859.63
2023-06-30T22:43:36.318Z,100858.31
2023-06-30T22:46:08.320Z,100863.44
2023-06-30T22:48:38.352Z,100865.28
2023-06-30T22:51:08.714Z,100861.72
2023-06-30T22:53:41.471Z,100867.44
2023-06-30T22:56:12.034Z,100871.25
2023-06-30T22:58:44.255Z,100871.88
2023-06-30T23:01:14.206Z,100869.50
2023-06-30T23:03:44.188Z,100867.44
2023-06-30T23:06:14.541Z,100861.56
2023-06-30T23:08:44.501Z,100861.66
2023-06-30T23:11:15.326Z,100866.31
2023-06-30T23:13:45.162Z,100869.53
2023-06-30T23:16:18.103Z,100867.44
2023-06-30T23:18:49.188Z,100873.22
2023-06-30T23:21:20.212Z,100865.84
2023-06-30T23:23:50.801Z,100868.19
2023-06-30T23:26:26.182Z,100871.34
2023-06-30T23:28:59.943Z,100868.38
2023-06-30T23:31:35.523Z,100870.41
2023-06-30T23:34:05.472Z,100879.94
2023-06-30T23:36:37.202Z,100878.25
2023-06-30T23:39:07.482Z,100885.88
2023-06-30T23:41:37.355Z,100887.72
2023-06-30T23:44:07.253Z,100887.81
2023-06-30T23:46:37.290Z,100898.94
2023-06-30T23:49:07.301Z,100897.44
2023-06-30T23:51:39.003Z,100896.50
2023-06-30T23:54:12.137Z,100902.44
2023-06-30T23:56:42.593Z,100897.16
2023-06-30T23:59:21.306Z,100894.22
